createdAt,value
2019-05-09T00:00:28.044Z,1.00
2019-05-09T00:02:57.082Z,0.80
2019-05-09T00:05:26.442Z,0.87
2019-05-09T00:10:48.017Z,1.00
2019-05-09T00:13:17.323Z,1.10
2019-05-09T00:15:46.515Z,1.00
2019-05-09T00:18:17.897Z,0.90
2019-05-09T00:21:07.957Z,1.07
2019-05-09T00:23:39.065Z,0.70
2019-05-09T00:26:08.248Z,1.00
2019-05-09T00:28:39.941Z,1.37
2019-05-09T00:31:49.385Z,0.70
2019-05-09T00:34:29.417Z,0.87
2019-05-09T00:36:58.514Z,1.07
2019-05-09T00:39:27.586Z,1.20
2019-05-09T00:42:06.283Z,1.17
2019-05-09T00:44:37.038Z,0.93
2019-05-09T00:47:23.862Z,0.87
2019-05-09T00:49:54.203Z,1.03
2019-05-09T00:52:33.932Z,0.93
2019-05-09T00:55:03.903Z,0.93
2019-05-09T00:57:35.916Z,1.20
2019-05-09T01:00:09.438Z,1.20
2019-05-09T01:02:47.553Z,0.90
2019-05-09T01:05:16.641Z,1.20
2019-05-09T01:07:45.839Z,1.30
2019-05-09T01:10:17.981Z,1.17
2019-05-09T01:12:56.632Z,1.00
2019-05-09T01:15:25.774Z,1.10
2019-05-09T01:17:54.968Z,1.10
2019-05-09T01:20:25.763Z,0.70
2019-05-09T01:23:04.271Z,0.90
2019-05-09T01:25:33.655Z,1.03
2019-05-09T01:28:03.424Z,1.10
2019-05-09T01:30:33.611Z,0.87
2019-05-09T01:33:30.556Z,0.87
2019-05-09T01:36:03.481Z,0.53
2019-05-09T01:38:33.879Z,0.90
2019-05-09T01:41:24.644Z,0.90
2019-05-09T01:43:44.256Z,1.30
2019-05-09T01:46:14.435Z,1.10
2019-05-09T01:48:43.668Z,0.77
2019-05-09T01:51:23.843Z,0.90
2019-05-09T01:53:55.270Z,0.90
2019-05-09T01:56:27.361Z,0.97
2019-05-09T01:58:56.341Z,0.93
2019-05-09T02:01:34.772Z,0.97
2019-05-09T02:04:04.248Z,1.30
2019-05-09T02:06:33.892Z,0.80
2019-05-09T02:09:03.543Z,1.03
2019-05-09T02:11:43.337Z,1.17
2019-05-09T02:14:17.005Z,1.10
2019-05-09T02:17:16.000Z,0.90
2019-05-09T02:19:45.655Z,1.10
2019-05-09T02:22:35.748Z,0.93
2019-05-09T02:25:06.727Z,1.10
2019-05-09T02:27:35.881Z,1.40
2019-05-09T02:30:06.227Z,1.13
2019-05-09T02:32:45.263Z,1.00
2019-05-09T02:35:15.057Z,0.73
2019-05-09T02:37:44.366Z,1.27
2019-05-09T02:40:13.547Z,1.40
2019-05-09T02:43:03.269Z,1.50
2019-05-09T02:45:38.959Z,1.27
2019-05-09T02:48:11.376Z,1.17
2019-05-09T02:50:40.584Z,1.33
2019-05-09T02:53:19.270Z,1.30
2019-05-09T02:55:49.505Z,1.40
2019-05-09T02:58:20.749Z,1.30
2019-05-09T03:01:03.736Z,1.30
2019-05-09T04:07:03.667Z,2.70
2019-05-09T04:09:32.951Z,2.53
2019-05-09T04:12:29.770Z,2.90
2019-05-09T04:15:00.023Z,2.80
2019-05-09T04:17:47.444Z,2.83
2019-05-09T04:20:22.560Z,2.63
2019-05-09T04:23:01.562Z,3.10
2019-05-09T04:26:12.879Z,2.50
2019-05-09T04:28:42.157Z,2.67
2019-05-09T04:31:11.558Z,2.60
2019-05-09T04:36:42.741Z,2.83
2019-05-09T04:39:21.008Z,3.13
2019-05-09T04:42:18.665Z,3.27
2019-05-09T04:45:40.280Z,3.27
2019-05-09T04:48:34.394Z,3.80
2019-05-09T04:51:55.641Z,3.47
2019-05-09T04:55:20.683Z,3.80
2019-05-09T05:04:31.425Z,2.60
2019-05-09T05:10:29.767Z,2.97
2019-05-09T05:12:58.742Z,2.57
2019-05-09T05:15:31.190Z,3.40
2019-05-09T05:18:04.023Z,3.00
2019-05-09T05:20:34.368Z,2.80
2019-05-09T05:23:15.283Z,2.60
2019-05-09T05:25:53.111Z,2.90
2019-05-09T05:28:40.743Z,3.10
2019-05-09T05:31:12.089Z,2.50
2019-05-09T05:34:27.385Z,2.67
2019-05-09T05:58:45.982Z,3.00
2019-05-09T06:02:02.636Z,2.30
2019-05-09T06:10:57.698Z,2.30
2019-05-09T06:17:28.627Z,3.07
2019-05-09T06:20:41.390Z,2.00
2019-05-09T06:23:30.317Z,2.20
2019-05-09T06:29:31.526Z,2.07
2019-05-09T06:32:09.825Z,2.07
2019-05-09T06:35:03.666Z,2.00
2019-05-09T06:37:35.294Z,2.10
2019-05-09T06:40:21.534Z,1.83
2019-05-09T06:42:51.267Z,2.20
2019-05-09T06:45:44.891Z,2.00
2019-05-09T06:50:58.562Z,1.80
2019-05-09T06:53:28.205Z,2.00
2019-05-09T06:56:04.507Z,1.80
2019-05-09T06:58:59.015Z,1.90
2019-05-09T07:01:39.342Z,1.90
2019-05-09T07:04:18.423Z,1.80
2019-05-09T07:07:19.463Z,1.80
2019-05-09T07:09:54.941Z,1.67
2019-05-09T07:12:24.353Z,1.63
2019-05-09T07:15:11.652Z,1.77
2019-05-09T07:17:40.893Z,1.80
2019-05-09T07:20:28.459Z,1.80
2019-05-09T07:23:00.623Z,1.60
2019-05-09T07:25:54.278Z,1.73
2019-05-09T07:28:24.850Z,1.47
2019-05-09T07:31:20.845Z,1.60
2019-05-09T07:33:59.495Z,1.40
2019-05-09T07:36:38.485Z,1.23
2019-05-09T07:39:17.613Z,1.50
2019-05-09T07:41:47.960Z,1.00
2019-05-09T07:44:23.175Z,0.90
2019-05-09T07:46:58.250Z,1.10
2019-05-09T07:49:37.730Z,0.90
2019-05-09T07:52:10.312Z,0.83
2019-05-09T07:54:39.982Z,1.20
2019-05-09T07:57:09.282Z,1.20
2019-05-09T07:59:50.522Z,1.07
2019-05-09T08:02:19.559Z,0.90
2019-05-09T08:04:49.425Z,0.70
2019-05-09T08:07:19.236Z,0.70
2019-05-09T08:09:58.018Z,0.80
2019-05-09T08:12:28.349Z,1.10
2019-05-09T08:15:10.140Z,0.90
2019-05-09T08:17:28.778Z,0.90
2019-05-09T08:20:09.054Z,0.90
2019-05-09T08:22:42.083Z,0.87
2019-05-09T08:25:12.373Z,1.23
2019-05-09T08:27:41.460Z,1.20
2019-05-09T08:30:19.741Z,1.07
2019-05-09T08:32:48.680Z,1.00
2019-05-09T08:35:18.358Z,1.10
2019-05-09T08:37:48.218Z,1.43
2019-05-09T08:40:28.364Z,1.30
2019-05-09T08:42:58.852Z,0.93
2019-05-09T08:45:31.178Z,1.00
2019-05-09T08:47:58.971Z,1.00
2019-05-09T08:50:47.898Z,0.90
2019-05-09T08:53:18.844Z,0.80
2019-05-09T08:55:48.007Z,1.13
2019-05-09T08:58:19.648Z,0.97
2019-05-09T09:01:04.103Z,0.93
2019-05-09T09:03:28.371Z,0.90
2019-05-09T09:05:57.867Z,1.23
2019-05-09T09:08:28.463Z,1.07
2019-05-09T09:10:57.840Z,1.00
2019-05-09T09:13:28.766Z,1.03
2019-05-09T09:16:11.715Z,0.80
2019-05-09T09:18:28.598Z,0.80
2019-05-09T09:21:08.254Z,1.20
2019-05-09T09:26:13.349Z,1.00
2019-05-09T09:28:42.437Z,1.10
2019-05-09T09:31:32.126Z,1.10
2019-05-09T09:34:01.282Z,1.10
2019-05-09T09:36:31.883Z,1.27
2019-05-09T09:39:05.125Z,2.50
2019-05-09T09:41:34.299Z,0.97
2019-05-09T09:44:03.487Z,0.80
2019-05-09T09:46:32.787Z,1.10
2019-05-09T09:49:02.051Z,0.73
2019-05-09T09:51:40.707Z,1.17
2019-05-09T09:54:09.923Z,1.10
2019-05-09T09:56:47.860Z,1.30
2019-05-09T09:59:42.879Z,0.97
2019-05-09T10:02:27.694Z,0.97
2019-05-09T10:04:55.583Z,0.90
2019-05-09T10:07:27.992Z,1.20
2019-05-09T10:09:58.406Z,1.20
2019-05-09T10:15:10.108Z,1.10
2019-05-09T10:17:58.245Z,1.37
2019-05-09T10:23:33.732Z,1.13
2019-05-09T10:26:04.800Z,0.93
2019-05-09T10:28:37.846Z,0.80
2019-05-09T10:31:14.303Z,0.73
2019-05-09T10:33:43.616Z,1.10
2019-05-09T10:36:13.138Z,0.70
2019-05-09T10:38:42.463Z,0.77
2019-05-09T10:41:22.952Z,0.80
2019-05-09T10:44:02.551Z,0.83
2019-05-09T10:47:00.734Z,0.87
2019-05-09T10:49:28.073Z,0.63
2019-05-09T10:52:08.632Z,0.93
2019-05-09T10:54:37.376Z,1.13
2019-05-09T11:00:09.030Z,1.00
2019-05-09T11:02:51.003Z,1.20
2019-05-09T11:05:27.784Z,1.27
2019-05-09T11:08:03.733Z,1.50
2019-05-09T11:10:33.091Z,1.40
2019-05-09T11:13:02.436Z,1.60
2019-05-09T11:15:37.513Z,1.10
2019-05-09T11:18:24.204Z,1.30
2019-05-09T11:21:02.303Z,1.73
2019-05-09T11:23:35.583Z,1.00
2019-05-09T11:26:12.717Z,1.00
2019-05-09T11:28:50.270Z,0.80
2019-05-09T11:31:38.508Z,0.57
2019-05-09T11:34:13.456Z,0.40
2019-05-09T11:36:49.862Z,0.93
2019-05-09T11:39:35.271Z,0.60
2019-05-09T11:41:59.641Z,0.90
2019-05-09T11:44:30.376Z,1.00
2019-05-09T11:47:02.213Z,0.80
2019-05-09T11:49:34.060Z,0.47
2019-05-09T11:52:12.787Z,1.00
2019-05-09T11:54:43.649Z,1.27
2019-05-09T11:57:12.691Z,0.83
2019-05-09T11:59:42.006Z,1.03
2019-05-09T12:02:24.150Z,1.30
2019-05-09T12:05:00.719Z,1.30
2019-05-09T12:11:28.200Z,1.20
2019-05-09T12:13:59.290Z,1.60
2019-05-09T12:16:30.238Z,1.50
2019-05-09T12:19:07.938Z,1.57
2019-05-09T12:21:48.582Z,2.00
2019-05-09T12:24:22.567Z,1.80
2019-05-09T12:26:53.732Z,2.00
2019-05-09T12:29:25.314Z,2.57
2019-05-09T12:34:38.355Z,2.00
2019-05-09T12:37:09.531Z,2.00
2019-05-09T12:39:41.211Z,1.93
2019-05-09T12:42:20.089Z,1.90
2019-05-09T12:44:53.450Z,1.53
2019-05-09T12:50:42.670Z,2.17
2019-05-09T12:53:28.042Z,1.80
2019-05-09T12:56:51.264Z,2.40
2019-05-09T12:59:28.658Z,2.10
2019-05-09T13:02:21.395Z,1.83
2019-05-09T13:05:03.904Z,1.73
2019-05-09T13:08:17.839Z,1.67
2019-05-09T13:10:52.830Z,1.90
2019-05-09T13:13:40.476Z,1.70
2019-05-09T13:16:44.152Z,1.70
2019-05-09T13:19:08.959Z,1.40
2019-05-09T13:22:14.317Z,1.40
2019-05-09T13:24:47.528Z,1.10
2019-05-09T13:27:24.180Z,1.10
2019-05-09T13:29:55.279Z,1.00
2019-05-09T13:35:21.339Z,1.10
2019-05-09T13:37:50.770Z,1.13
2019-05-09T13:40:20.175Z,1.00
2019-05-09T13:43:00.792Z,1.13
2019-05-09T14:00:31.862Z,1.37
2019-05-09T14:07:31.918Z,1.60
2019-05-09T14:10:33.935Z,1.60
2019-05-09T14:13:09.325Z,3.33
2019-05-09T14:15:34.209Z,3.37
2019-05-09T14:18:28.716Z,2.90
2019-05-09T14:21:36.330Z,3.20
2019-05-09T14:24:38.835Z,4.47
2019-05-09T14:27:10.579Z,3.00
2019-05-09T14:29:49.952Z,1.90
2019-05-09T14:32:26.892Z,1.43
2019-05-09T14:34:51.635Z,1.40
2019-05-09T14:37:20.841Z,1.00
2019-05-09T14:40:03.844Z,1.00
2019-05-09T14:42:30.541Z,1.63
2019-05-09T14:44:59.804Z,1.10
2019-05-09T14:47:29.473Z,1.20
2019-05-09T14:50:09.927Z,1.20
2019-05-09T15:38:22.615Z,1.77
2019-05-09T15:40:54.028Z,2.00
2019-05-09T15:43:23.106Z,2.00
2019-05-09T15:46:01.497Z,2.10
2019-05-09T15:48:42.629Z,1.87
2019-05-09T15:51:27.974Z,1.97
2019-05-09T15:54:12.412Z,1.73
2019-05-09T15:56:38.448Z,1.57
2019-05-09T15:59:08.011Z,2.10
2019-05-09T16:01:48.890Z,1.80
2019-05-09T16:04:19.399Z,1.90
2019-05-09T16:06:50.960Z,1.93
2019-05-09T16:09:19.918Z,1.80
2019-05-09T16:12:01.275Z,2.00
2019-05-09T16:14:30.769Z,1.87
2019-05-09T16:16:59.849Z,1.60
2019-05-09T16:19:30.949Z,1.83
2019-05-09T16:22:09.144Z,2.83
2019-05-09T16:24:40.753Z,1.53
2019-05-09T16:27:10.633Z,1.20
2019-05-09T16:29:39.670Z,1.20
2019-05-09T16:32:17.835Z,1.40
2019-05-09T16:34:49.191Z,1.10
2019-05-09T16:37:21.146Z,1.10
2019-05-09T16:39:50.227Z,1.13
2019-05-09T16:42:30.561Z,1.23
2019-05-09T16:45:01.625Z,1.20
2019-05-09T16:47:31.499Z,1.10
2019-05-09T16:50:00.780Z,1.27
2019-05-09T16:52:43.132Z,1.27
2019-05-09T16:55:18.169Z,1.43
2019-05-09T16:57:47.412Z,1.23
2019-05-09T17:00:48.261Z,1.13
2019-05-09T17:03:17.999Z,1.63
2019-05-09T17:05:47.166Z,1.27
2019-05-09T17:08:17.829Z,1.20
2019-05-09T17:11:00.555Z,1.20
2019-05-09T17:13:29.711Z,1.10
2019-05-09T17:15:58.766Z,1.20
2019-05-09T17:18:30.181Z,1.40
2019-05-09T17:21:28.107Z,0.80
2019-05-09T17:23:58.399Z,1.10
2019-05-09T17:26:34.628Z,1.20
2019-05-09T17:29:04.674Z,1.00
2019-05-09T17:31:43.109Z,1.03
2019-05-09T17:34:14.091Z,1.03
2019-05-09T17:36:43.267Z,1.20
2019-05-09T17:39:12.289Z,0.90
2019-05-09T17:41:50.765Z,1.00
2019-05-09T17:44:28.108Z,1.00
2019-05-09T17:47:00.042Z,1.03
2019-05-09T17:49:32.093Z,1.63
2019-05-09T17:52:33.426Z,1.70
2019-05-09T17:55:23.654Z,1.60
2019-05-09T17:57:58.653Z,1.80
2019-05-09T18:00:28.122Z,1.63
2019-05-09T18:03:03.123Z,1.80
2019-05-09T18:05:35.404Z,1.50
2019-05-09T18:08:03.358Z,1.00
2019-05-09T18:10:33.786Z,1.00
2019-05-09T18:16:47.783Z,0.97
2019-05-09T18:19:19.690Z,0.83
2019-05-09T18:21:59.560Z,1.40
2019-05-09T18:24:31.413Z,1.10
2019-05-09T18:27:12.167Z,1.20
2019-05-09T18:29:41.437Z,0.97
2019-05-09T18:32:57.878Z,1.30
2019-05-09T18:35:27.955Z,1.07
2019-05-09T18:37:58.826Z,0.97
2019-05-09T18:40:28.294Z,1.00
2019-05-09T18:43:07.684Z,0.97
2019-05-09T18:45:37.660Z,1.07
2019-05-09T18:48:10.927Z,1.30
2019-05-09T18:50:40.647Z,1.30
2019-05-09T18:53:19.294Z,1.20
2019-05-09T18:55:49.772Z,1.13
2019-05-09T18:58:39.614Z,1.10
2019-05-09T19:01:30.746Z,1.03
2019-05-09T19:04:40.914Z,1.00
2019-05-09T19:07:21.874Z,0.80
2019-05-09T19:09:41.981Z,0.73
2019-05-09T19:12:20.662Z,1.00
2019-05-09T19:15:06.504Z,0.80
2019-05-09T19:17:58.339Z,0.90
2019-05-09T19:20:53.515Z,0.67
2019-05-09T19:23:49.544Z,0.80
2019-05-09T19:26:41.653Z,1.03
2019-05-09T19:29:19.914Z,1.00
2019-05-09T19:31:50.510Z,0.90
2019-05-09T19:34:29.228Z,0.70
2019-05-09T19:36:58.515Z,1.20
2019-05-09T19:39:29.756Z,1.13
2019-05-09T19:42:14.171Z,1.13
2019-05-09T19:44:43.499Z,1.17
2019-05-09T19:47:12.705Z,1.23
2019-05-09T19:50:26.775Z,1.17
2019-05-09T19:53:10.208Z,1.13
2019-05-09T19:55:45.498Z,1.57
2019-05-09T19:58:19.994Z,1.27
2019-05-09T20:00:52.441Z,1.30
2019-05-09T20:03:42.661Z,1.27
2019-05-09T20:06:11.931Z,1.20
2019-05-09T20:08:43.568Z,1.40
2019-05-09T20:11:23.833Z,1.40
2019-05-09T20:14:24.234Z,1.30
2019-05-09T21:20:44.337Z,2.33
2019-05-09T21:23:24.338Z,2.17
2019-05-09T21:25:46.085Z,2.30
2019-05-09T21:28:15.348Z,2.50
2019-05-09T21:30:47.326Z,2.40
2019-05-09T21:33:16.679Z,2.30
2019-05-09T21:35:54.985Z,2.13
2019-05-09T21:38:25.937Z,2.30
2019-05-09T21:40:55.281Z,2.37
2019-05-09T21:43:26.444Z,3.40
2019-05-09T21:45:55.907Z,2.73
2019-05-09T21:48:26.455Z,2.80
2019-05-09T21:58:34.937Z,2.80
2019-05-09T22:01:05.603Z,2.63
2019-05-09T22:03:34.811Z,2.23
2019-05-09T22:06:13.328Z,2.33
2019-05-09T22:08:43.121Z,2.60
2019-05-09T22:11:12.431Z,3.03
2019-05-09T22:13:41.558Z,2.77
2019-05-09T22:16:19.958Z,2.93
2019-05-09T22:18:49.171Z,2.80
2019-05-09T22:21:23.503Z,2.47
2019-05-09T22:23:56.823Z,2.60
2019-05-09T22:26:34.913Z,2.47
2019-05-09T22:29:04.114Z,2.53
2019-05-09T22:31:36.288Z,2.77
2019-05-09T22:34:05.558Z,2.90
2019-05-09T22:36:34.825Z,3.20
2019-05-09T22:39:06.069Z,2.70
2019-05-09T22:41:35.263Z,2.77
2019-05-09T22:44:04.441Z,2.63
2019-05-09T22:46:42.313Z,2.53
2019-05-09T22:49:20.283Z,2.70
2019-05-09T22:51:49.290Z,2.70
2019-05-09T22:54:20.541Z,2.40
2019-05-09T22:56:49.717Z,2.63
2019-05-09T22:59:27.898Z,2.40
2019-05-09T23:01:57.816Z,2.30
2019-05-09T23:04:31.771Z,2.60
2019-05-09T23:07:01.083Z,2.67
2019-05-09T23:12:16.681Z,2.70
2019-05-09T23:14:47.441Z,2.80
2019-05-09T23:17:16.866Z,2.70
2019-05-09T23:19:58.136Z,3.10
2019-05-09T23:22:31.063Z,2.80
2019-05-09T23:25:02.061Z,2.53
2019-05-09T23:27:31.203Z,2.80
2019-05-09T23:32:46.165Z,2.90
2019-05-09T23:35:15.255Z,2.93
2019-05-09T23:37:44.322Z,2.73
2019-05-09T23:40:34.206Z,3.30
2019-05-09T23:43:03.531Z,2.80
2019-05-09T23:45:32.815Z,3.13
2019-05-09T23:48:01.822Z,3.23
2019-05-09T23:50:40.454Z,3.47
2019-05-09T23:53:09.509Z,3.23
2019-05-09T23:55:56.243Z,3.10
2019-05-09T23:58:47.665Z,3.73
